Главная страница
METAR-TAF:

METAR-TAF

Аэропорты :

Уральск, Казахстан

широта: 51-15N, долгота: 051-17E, высота над уровнем моря: 36 м

Текущие метеонаблюдения

Эта сводка был подготовлена 1 час и 4 минут назад, в 23:00 UTC
Ветер 4 Узел от северо-северо-восточный
Температура -9°C
Влажность 92%
Давление 1038 hPa
Видимость: 2400 м
Сплошная облачность на высоте 200 фута
дымка

METAR: UARR 182300Z 02002MPS 2400 BR OVC002 M09/M10 Q1038 R22/720250 TEMPO 0700 FZFG VV002 RMK QBB080 QFE775/1033

Время: 05:04 (00:04 UTC)

Прогноз

Эта сводка был подготовлена 4 часа и 4 минут назад, в 20:00 UTC
Прогноз действительный с 18-го 21 UTC до 19-го 06 UTC
Ветер 4 Узел переменных направлений
Видимость: 3000 м
Рассеянная облачность на высоте 400 фута
дымка
временами
С 18-го 21 UTC до 19-го 03 UTC
Видимость: 0400 м
на высоте 200 фута
переохлажденный туман

TAF: UARR 182000Z 1821/1906 VRB02MPS 3000 BR BKN004 TEMPO 1821/1903 0400 FZFG VV002

Метеонаблюдения и прогнозы для более 4000 аэропортов (сводки METAR и TAF).

Имеющиеся станции представлены на карте желтыми и красными точками.

Чтобы увидеть название станции, наведите на нее мышь.

Затем щелкните, чтобы увидеть метеонаблюдения и метеопрогнозы.

Управление картой: чтобы увеличить масштаб, щелкните зеленые кнопки с черным крестиком; чтобы уменьшить масштаб, щелкните зеленую кнопку с тире; для просмотра соседних карт щелкайте зеленые стрелки.


METAR-TAF: